Time;durP1;ratioP1;P1;durP2;ratioP2;P2;SDS_P1;SDS_P2;PMS_P1;PMS_P2;Temp;Humidity;BMP_temperature;BMP_pressure;BME280_temperature;BME280_humidity;BME280_pressure;Samples;Min_cycle;Max_cycle;Signal;HPM_P1;HPM_P2
2021/03/01 00:01:04;;;;;;;28.37;19.33;;;;;;;3.05;77.11;100432.77;2189542;81;21126;-76
2021/03/01 00:04:05;;;;;;;29.10;18.47;;;;;;;3.07;76.85;100429.00;2189344;81;21123;-77
2021/03/01 00:07:06;;;;;;;30.83;19.07;;;;;;;3.08;76.74;100432.97;2191455;81;21258;-78
2021/03/01 00:10:10;;;;;;;26.13;18.10;;;;;;;3.10;76.74;100438.23;2192320;81;21400;-76
2021/03/01 00:13:11;;;;;;;28.27;18.27;;;;;;;3.10;76.79;100427.52;2183065;80;21080;-76
2021/03/01 00:16:14;;;;;;;29.40;17.50;;;;;;;3.09;76.79;100433.86;2090981;84;21135;-76
2021/03/01 00:19:15;;;;;;;28.27;17.77;;;;;;;3.12;76.59;100432.38;2115671;84;21156;-76
2021/03/01 00:22:16;;;;;;;25.73;18.83;;;;;;;3.16;76.66;100436.05;2089941;84;21258;-75
2021/03/01 00:25:17;;;;;;;26.03;18.30;;;;;;;3.18;76.50;100438.34;2125907;83;21135;-77
2021/03/01 00:28:18;;;;;;;32.00;18.03;;;;;;;3.20;76.48;100445.39;2115546;84;21433;-77
2021/03/01 00:31:19;;;;;;;26.37;18.27;;;;;;;3.19;76.49;100451.34;2090481;85;21230;-77
2021/03/01 00:34:20;;;;;;;25.50;17.83;;;;;;;3.19;76.42;100449.16;2126165;83;21167;-76
2021/03/01 00:37:22;;;;;;;27.83;17.90;;;;;;;3.17;76.37;100448.16;2115530;84;21262;-77
2021/03/01 00:40:25;;;;;;;29.70;18.13;;;;;;;3.18;76.40;100450.84;2090535;85;21262;-76
2021/03/01 00:43:26;;;;;;;23.20;16.27;;;;;;;3.17;76.45;100450.75;2125962;83;21262;-77
2021/03/01 00:46:27;;;;;;;26.77;17.53;;;;;;;3.18;76.37;100453.42;2115764;84;21155;-76
2021/03/01 00:49:28;;;;;;;26.20;17.33;;;;;;;3.17;76.25;100449.45;2090554;84;21467;-75
2021/03/01 00:52:29;;;;;;;25.20;16.77;;;;;;;3.18;76.41;100449.56;2126194;83;21123;-77
2021/03/01 00:55:30;;;;;;;21.53;16.77;;;;;;;3.18;76.38;100445.69;2115593;84;21170;-76
2021/03/01 00:58:31;;;;;;;24.73;17.70;;;;;;;3.20;76.33;100448.37;2090541;84;21421;-77
2021/03/01 01:01:32;;;;;;;22.73;16.43;;;;;;;3.21;76.12;100446.28;2125941;83;21092;-76
2021/03/01 01:04:33;;;;;;;25.60;17.33;;;;;;;3.20;76.31;100454.42;2115687;84;21246;-76
2021/03/01 01:07:34;;;;;;;24.53;16.60;;;;;;;3.19;76.34;100453.03;2098668;84;21179;-76
2021/03/01 01:10:38;;;;;;;28.90;18.23;;;;;;;3.19;76.26;100450.45;2135759;83;21119;-76
2021/03/01 01:13:39;;;;;;;25.47;16.87;;;;;;;3.19;76.24;100453.92;2193847;80;21456;-76
2021/03/01 01:16:40;;;;;;;26.07;17.57;;;;;;;3.19;76.35;100460.77;2193951;80;21123;-76
2021/03/01 01:19:41;;;;;;;24.43;17.00;;;;;;;3.16;76.37;100458.88;2194056;80;21146;-77
2021/03/01 01:22:42;;;;;;;27.20;17.87;;;;;;;3.18;76.39;100459.88;2193615;80;21283;-77
2021/03/01 01:25:43;;;;;;;24.77;17.73;;;;;;;3.18;76.40;100458.98;2193889;80;21127;-76
2021/03/01 01:28:44;;;;;;;24.57;17.37;;;;;;;3.18;76.44;100459.88;2193823;80;21393;-76
2021/03/01 01:31:45;;;;;;;22.87;16.90;;;;;;;3.19;76.37;100462.95;2193886;80;21114;-77
2021/03/01 01:34:46;;;;;;;19.33;15.87;;;;;;;3.20;76.31;100460.87;2193791;80;21151;-77
2021/03/01 01:37:48;;;;;;;27.00;17.00;;;;;;;3.19;76.39;100460.37;2193802;80;21115;-76
2021/03/01 01:40:49;;;;;;;21.03;15.33;;;;;;;3.20;76.29;100462.16;2193865;80;21249;-76
2021/03/01 01:43:50;;;;;;;21.80;15.97;;;;;;;3.23;76.33;100475.67;2193831;80;21087;-76
2021/03/01 01:46:51;;;;;;;24.80;15.57;;;;;;;3.25;76.18;100470.61;2193865;80;21405;-77
2021/03/01 01:49:52;;;;;;;24.67;16.97;;;;;;;3.25;76.30;100470.61;2193799;80;21146;-76
2021/03/01 01:52:56;;;;;;;22.13;15.73;;;;;;;3.26;76.22;100473.29;2193792;80;21366;-76
2021/03/01 01:55:57;;;;;;;21.83;15.93;;;;;;;3.27;76.15;100471.20;2194101;80;21163;-78
2021/03/01 01:58:58;;;;;;;22.67;15.57;;;;;;;3.27;76.19;100469.02;2099983;83;21158;-76
2021/03/01 02:01:59;;;;;;;27.53;16.00;;;;;;;3.26;76.19;100469.81;2193713;80;21072;-77
2021/03/01 02:05:00;;;;;;;22.97;16.70;;;;;;;3.26;76.22;100472.39;2193781;80;21119;-76
2021/03/01 02:08:01;;;;;;;24.27;17.67;;;;;;;3.28;76.26;100476.87;2184265;80;21405;-76
2021/03/01 02:11:02;;;;;;;24.93;16.90;;;;;;;3.29;76.30;100473.49;2183582;82;21102;-78
2021/03/01 02:14:03;;;;;;;24.33;17.87;;;;;;;3.24;76.36;100466.23;2183019;82;21163;-77
2021/03/01 02:17:05;;;;;;;24.50;17.43;;;;;;;3.24;76.33;100470.11;2183439;81;21401;-76
2021/03/01 02:20:08;;;;;;;27.33;17.73;;;;;;;3.26;76.36;100477.56;2183610;81;21134;-76
2021/03/01 02:23:10;;;;;;;23.10;16.90;;;;;;;3.26;76.39;100473.69;2183440;82;21250;-77
2021/03/01 02:26:11;;;;;;;24.10;16.70;;;;;;;3.23;76.67;100477.36;2183401;82;21380;-77
2021/03/01 02:29:12;;;;;;;23.83;17.23;;;;;;;3.22;76.45;100476.46;2183423;81;21269;-77
2021/03/01 02:32:13;;;;;;;25.23;17.93;;;;;;;3.24;76.69;100479.14;2183380;82;21247;-78
2021/03/01 02:35:14;;;;;;;21.63;15.83;;;;;;;3.36;76.53;100476.98;2183391;81;21139;-78
2021/03/01 02:38:15;;;;;;;23.17;17.03;;;;;;;3.34;76.36;100484.13;2100591;84;21138;-77
2021/03/01 02:41:16;;;;;;;23.20;16.83;;;;;;;3.31;76.33;100478.36;2189946;81;21135;-77
2021/03/01 02:44:17;;;;;;;24.87;17.83;;;;;;;3.31;76.49;100484.81;2189918;81;21119;-77
2021/03/01 02:47:18;;;;;;;25.17;17.57;;;;;;;3.30;76.54;100480.84;2189762;81;21080;-77
2021/03/01 02:50:20;;;;;;;25.00;17.03;;;;;;;3.27;76.47;100475.48;2189411;81;21139;-77
2021/03/01 02:53:21;;;;;;;28.03;18.57;;;;;;;3.28;76.41;100474.68;2183846;81;21234;-77
2021/03/01 02:56:22;;;;;;;29.00;18.53;;;;;;;3.28;76.42;100473.00;2183517;81;21076;-78
2021/03/01 02:59:25;;;;;;;23.17;18.47;;;;;;;3.28;76.58;100478.55;2183268;81;21409;-77
2021/03/01 03:02:26;;;;;;;23.87;17.20;;;;;;;3.28;76.60;100477.27;2183675;81;21389;-78
2021/03/01 03:05:28;;;;;;;24.93;17.87;;;;;;;3.27;76.75;100475.48;2182960;82;21139;-78
2021/03/01 03:08:29;;;;;;;24.27;17.20;;;;;;;3.26;76.84;100480.14;2090734;84;21356;-77
2021/03/01 03:11:32;;;;;;;24.83;16.60;;;;;;;3.22;76.80;100472.59;2115906;84;21273;-77
2021/03/01 03:14:33;;;;;;;20.93;16.20;;;;;;;3.22;76.79;100479.44;2091266;84;21186;-78
2021/03/01 03:17:34;;;;;;;25.47;17.60;;;;;;;3.24;76.96;100486.89;2125973;83;21108;-76
2021/03/01 03:20:35;;;;;;;23.30;17.40;;;;;;;3.23;76.83;100485.09;2115630;84;21556;-77
2021/03/01 03:23:36;;;;;;;23.87;17.67;;;;;;;3.24;76.93;100488.17;2090491;85;21152;-78
2021/03/01 03:26:38;;;;;;;23.00;18.70;;;;;;;3.25;76.78;100488.67;2125945;84;21254;-77
2021/03/01 03:29:39;;;;;;;26.40;18.63;;;;;;;3.26;76.92;100481.03;2116036;84;21376;-77
2021/03/01 03:32:40;;;;;;;27.20;18.40;;;;;;;3.28;76.94;100492.35;2090040;84;21167;-78
2021/03/01 03:35:43;;;;;;;30.17;19.00;;;;;;;3.28;76.96;100493.64;2125751;84;22132;-77
2021/03/01 03:38:44;;;;;;;23.70;17.80;;;;;;;3.25;77.06;100496.02;2116143;84;21143;-78
2021/03/01 03:41:45;;;;;;;28.33;18.83;;;;;;;3.24;77.02;100499.79;2090992;84;21104;-77
2021/03/01 03:44:46;;;;;;;31.33;18.87;;;;;;;3.22;76.91;100499.69;2125884;83;21258;-78
2021/03/01 03:47:47;;;;;;;25.20;19.10;;;;;;;3.25;76.97;100500.28;2115663;84;21132;-76
2021/03/01 03:50:48;;;;;;;23.33;17.83;;;;;;;3.27;76.83;100502.58;2090597;84;21246;-77
2021/03/01 03:53:49;;;;;;;31.00;18.17;;;;;;;3.30;76.89;100507.94;2125952;83;21563;-77
2021/03/01 03:56:50;;;;;;;23.80;18.40;;;;;;;3.32;76.85;100511.52;2115503;84;21262;-77
2021/03/01 03:59:51;;;;;;;25.47;18.13;;;;;;;3.31;76.78;100513.60;2090027;85;21385;-77
2021/03/01 04:02:52;;;;;;;25.90;18.53;;;;;;;3.33;76.71;100519.76;2125870;83;21099;-77
2021/03/01 04:05:54;;;;;;;25.47;18.40;;;;;;;3.36;76.71;100514.80;2115660;84;21266;-76
2021/03/01 04:08:55;;;;;;;22.00;17.80;;;;;;;3.38;76.68;100519.67;2100903;84;21163;-77
2021/03/01 04:11:56;;;;;;;25.23;19.10;;;;;;;3.38;76.60;100519.67;2136840;83;21254;-77
2021/03/01 04:14:57;;;;;;;23.27;18.63;;;;;;;3.39;76.53;100520.17;2183141;81;21176;-76
2021/03/01 04:17:58;;;;;;;24.23;17.50;;;;;;;3.40;76.57;100524.14;2183125;82;21246;-76
2021/03/01 04:20:59;;;;;;;22.80;17.53;;;;;;;3.41;76.43;100527.22;2183245;81;21140;-77
2021/03/01 04:24:00;;;;;;;25.73;17.83;;;;;;;3.44;76.41;100532.59;2183072;81;21195;-77
2021/03/01 04:27:01;;;;;;;23.53;18.83;;;;;;;3.47;76.37;100523.80;2182338;82;21232;-77
2021/03/01 04:30:02;;;;;;;21.33;17.03;;;;;;;3.44;76.29;100519.68;2182570;82;21269;-77
2021/03/01 04:33:03;;;;;;;26.80;17.50;;;;;;;3.45;76.29;100525.73;2182318;82;21402;-77
2021/03/01 04:36:04;;;;;;;25.63;18.63;;;;;;;3.44;76.25;100524.84;2181172;81;21674;-77
2021/03/01 04:39:05;;;;;;;22.13;17.43;;;;;;;3.47;76.30;100534.52;2180908;81;21131;-74
2021/03/01 04:42:06;;;;;;;27.37;18.47;;;;;;;3.48;76.23;100537.59;2179890;81;21116;-75
2021/03/01 04:45:07;;;;;;;23.83;18.37;;;;;;;3.50;76.24;100528.27;2179458;82;21246;-74
2021/03/01 04:48:09;;;;;;;29.43;20.60;;;;;;;3.50;76.25;100535.61;2178679;82;21286;-74
2021/03/01 04:51:10;;;;;;;28.20;19.60;;;;;;;3.49;76.16;100532.93;2178954;81;21143;-75
2021/03/01 04:54:11;;;;;;;29.07;19.77;;;;;;;3.50;76.22;100533.43;2178072;81;21292;-76
2021/03/01 04:57:12;;;;;;;24.93;20.17;;;;;;;3.53;76.15;100536.61;2178128;82;21124;-75
2021/03/01 05:00:13;;;;;;;31.67;22.33;;;;;;;3.55;76.13;100535.92;2179697;81;21123;-75
2021/03/01 05:03:14;;;;;;;31.57;22.80;;;;;;;3.58;76.06;100537.41;2179602;81;21127;-73
2021/03/01 05:06:15;;;;;;;34.37;27.93;;;;;;;3.61;75.98;100532.84;2180101;81;21116;-75
2021/03/01 05:09:16;;;;;;;33.67;24.30;;;;;;;3.60;75.92;100542.67;2090341;84;21241;-74
2021/03/01 05:12:17;;;;;;;34.57;25.77;;;;;;;3.64;75.92;100544.67;2188325;81;21123;-74
2021/03/01 05:15:18;;;;;;;30.90;22.43;;;;;;;3.64;75.82;100534.34;2188346;81;21980;-74
2021/03/01 05:18:19;;;;;;;30.73;20.00;;;;;;;3.66;75.79;100543.98;2188709;81;21127;-75
2021/03/01 05:21:20;;;;;;;24.67;20.00;;;;;;;3.66;75.78;100549.54;2188461;81;21119;-75
2021/03/01 05:24:21;;;;;;;26.00;20.27;;;;;;;3.62;75.75;100547.55;2189537;81;21134;-74
2021/03/01 05:27:23;;;;;;;26.93;19.67;;;;;;;3.63;75.83;100558.38;2188495;81;21141;-74
2021/03/01 05:30:24;;;;;;;25.60;18.83;;;;;;;3.62;75.79;100560.06;2189647;81;21127;-75
2021/03/01 05:33:25;;;;;;;26.93;19.10;;;;;;;3.64;75.78;100557.58;2189195;81;21119;-75
2021/03/01 05:36:26;;;;;;;23.67;18.47;;;;;;;3.60;75.77;100560.75;2189104;81;21131;-75
2021/03/01 05:39:27;;;;;;;24.63;20.10;;;;;;;3.58;75.80;100560.65;2189142;81;21119;-76
2021/03/01 05:42:28;;;;;;;26.30;19.50;;;;;;;3.59;75.91;100569.30;2188371;81;21118;-75
2021/03/01 05:45:29;;;;;;;31.47;20.77;;;;;;;3.60;75.86;100571.98;2188862;81;21451;-76
2021/03/01 05:48:30;;;;;;;32.03;22.00;;;;;;;3.58;75.87;100571.38;2188515;81;21142;-75
2021/03/01 05:51:31;;;;;;;30.43;22.77;;;;;;;3.56;75.93;100572.96;2187973;81;21123;-75
2021/03/01 05:54:32;;;;;;;34.93;22.00;;;;;;;3.55;76.00;100572.06;2188057;81;21460;-74
2021/03/01 05:57:33;;;;;;;35.63;21.77;;;;;;;3.55;75.99;100569.88;2188032;81;21131;-75
2021/03/01 06:00:34;;;;;;;29.03;20.93;;;;;;;3.57;76.03;100576.94;2187851;81;21087;-75
2021/03/01 06:03:35;;;;;;;29.53;20.80;;;;;;;3.60;76.02;100568.11;2187399;81;21123;-75
2021/03/01 06:06:36;;;;;;;29.00;21.53;;;;;;;3.62;75.94;100573.38;2188029;81;21886;-75
2021/03/01 06:09:37;;;;;;;28.23;21.00;;;;;;;3.62;75.85;100572.08;2188338;81;21254;-75
2021/03/01 06:12:38;;;;;;;31.93;23.03;;;;;;;3.63;75.84;100577.34;2188090;81;21134;-75
2021/03/01 06:15:39;;;;;;;30.93;21.70;;;;;;;3.64;75.91;100575.27;2188109;81;21305;-75
2021/03/01 06:18:40;;;;;;;38.10;21.70;;;;;;;3.63;75.78;100590.26;2187788;81;21154;-75
2021/03/01 06:21:41;;;;;;;44.63;26.70;;;;;;;3.67;75.79;100591.36;2189282;81;21119;-76
2021/03/01 06:24:43;;;;;;;51.97;27.50;;;;;;;3.67;75.83;100593.55;2188902;81;21155;-76
2021/03/01 06:27:44;;;;;;;61.27;32.37;;;;;;;3.66;75.78;100594.33;2090717;84;21772;-76
2021/03/01 06:30:45;;;;;;;66.93;34.97;;;;;;;3.69;75.75;100598.81;2188776;80;21150;-75
2021/03/01 06:33:46;;;;;;;59.47;31.03;;;;;;;3.72;75.69;100604.18;2090771;84;21123;-77
2021/03/01 06:36:47;;;;;;;61.43;32.87;;;;;;;3.72;75.73;100605.08;2188497;81;21847;-75
2021/03/01 06:39:48;;;;;;;42.43;25.93;;;;;;;3.74;75.73;100606.07;2187471;81;21088;-76
2021/03/01 06:42:49;;;;;;;49.53;27.47;;;;;;;3.79;75.62;100609.86;2188467;81;21139;-75
2021/03/01 06:45:50;;;;;;;39.23;25.33;;;;;;;3.81;75.66;100619.89;2188816;81;21131;-75
2021/03/01 06:48:52;;;;;;;33.40;23.73;;;;;;;3.81;75.50;100622.88;2189126;81;21246;-76
2021/03/01 06:51:53;;;;;;;38.00;23.00;;;;;;;3.83;75.50;100621.28;2189975;81;21132;-77
2021/03/01 06:54:54;;;;;;;35.77;22.37;;;;;;;3.89;75.46;100627.26;2189276;81;21210;-76
2021/03/01 06:57:55;;;;;;;31.17;20.90;;;;;;;3.96;75.34;100622.59;2188754;81;21088;-76
2021/03/01 07:00:56;;;;;;;36.77;23.10;;;;;;;4.01;75.22;100628.06;2090149;84;21147;-76
2021/03/01 07:07:00;;;;;;;36.87;23.40;;;;;;;4.10;74.90;100633.84;2207282;79;22971;-75
2021/03/01 07:10:02;;;;;;;33.00;22.60;;;;;;;4.07;74.96;100637.12;2175032;81;21256;-75
2021/03/01 07:13:03;;;;;;;43.20;29.87;;;;;;;4.13;74.82;100639.21;2175170;82;21244;-76
2021/03/01 07:16:04;;;;;;;49.63;31.47;;;;;;;;;;2175316;82;21283;-76
2021/03/01 07:19:05;;;;;;;52.57;35.20;;;;;;;3.99;75.21;100639.99;2174780;82;21559;-76
2021/03/01 07:22:06;;;;;;;42.80;27.50;;;;;;;4.06;75.07;100643.48;2174939;82;21114;-75
2021/03/01 07:25:07;;;;;;;34.63;23.43;;;;;;;4.13;74.88;100653.03;2175501;81;21182;-75
2021/03/01 07:28:08;;;;;;;47.80;24.30;;;;;;;4.14;74.50;100653.92;2175024;82;21098;-75
2021/03/01 07:31:09;;;;;;;52.27;33.40;;;;;;;4.18;74.54;100661.08;2174820;82;21586;-75
2021/03/01 07:34:10;;;;;;;47.37;25.90;;;;;;;4.24;74.43;100657.61;2174792;82;21106;-75
2021/03/01 07:37:11;;;;;;;35.77;24.37;;;;;;;4.29;74.23;100657.52;2175107;82;21122;-75
2021/03/01 07:40:12;;;;;;;35.77;23.97;;;;;;;4.31;73.83;100652.05;2175013;82;21155;-75
2021/03/01 07:43:13;;;;;;;44.67;28.37;;;;;;;4.26;73.25;100652.14;2174505;82;21083;-75
2021/03/01 07:46:15;;;;;;;50.40;30.03;;;;;;;4.27;73.21;100654.33;2174696;82;21284;-75
2021/03/01 07:49:16;;;;;;;40.93;25.03;;;;;;;4.24;73.46;100657.61;2175099;82;21137;-75
2021/03/01 07:52:17;;;;;;;54.83;32.93;;;;;;;4.23;73.05;100667.45;2174769;82;21228;-75
2021/03/01 07:55:18;;;;;;;32.37;22.50;;;;;;;4.24;72.77;100674.41;2175832;82;21134;-75
2021/03/01 07:58:19;;;;;;;29.53;20.10;;;;;;;4.28;73.16;100662.58;2174937;82;21130;-76
2021/03/01 08:01:20;;;;;;;26.50;19.57;;;;;;;4.31;72.70;100673.12;2174344;82;21114;-75
2021/03/01 08:04:21;;;;;;;34.27;22.80;;;;;;;4.20;72.85;100669.84;2173185;81;21291;-75
2021/03/01 08:07:22;;;;;;;29.73;21.10;;;;;;;4.16;73.17;100671.72;2157889;82;21272;-75
2021/03/01 08:10:23;;;;;;;34.83;21.57;;;;;;;4.14;73.30;100673.31;2157579;82;21126;-76
2021/03/01 08:13:24;;;;;;;36.53;22.37;;;;;;;4.12;73.32;100672.31;2157884;82;21905;-75
2021/03/01 08:16:25;;;;;;;33.07;19.07;;;;;;;4.25;73.55;100672.33;2157518;82;21245;-75
2021/03/01 08:19:26;;;;;;;25.73;18.47;;;;;;;4.37;72.89;100661.92;2156851;82;21122;-75
2021/03/01 08:22:27;;;;;;;31.87;21.33;;;;;;;4.46;72.26;100673.76;2157939;82;21640;-74
2021/03/01 08:25:28;;;;;;;34.17;21.47;;;;;;;4.58;71.44;100675.34;2157278;82;21301;-75
2021/03/01 08:28:32;;;;;;;31.57;21.43;;;;;;;4.67;71.59;100676.83;2157882;82;21261;-74
2021/03/01 08:31:33;;;;;;;33.73;19.67;;;;;;;4.74;71.38;100672.55;2157926;82;21254;-75
2021/03/01 08:34:34;;;;;;;41.07;21.80;;;;;;;4.75;71.50;100679.52;2156387;82;21855;-75
2021/03/01 08:37:35;;;;;;;35.10;21.17;;;;;;;4.83;71.22;100677.41;2157199;82;21135;-74
2021/03/01 08:40:36;;;;;;;50.27;24.90;;;;;;;4.87;70.87;100683.28;2157209;82;21261;-76
2021/03/01 08:43:38;;;;;;;38.63;19.27;;;;;;;4.86;70.95;100688.35;2156651;82;21127;-76
2021/03/01 08:46:39;;;;;;;40.80;19.67;;;;;;;4.86;70.98;100690.94;2156364;82;22001;-75
2021/03/01 08:49:41;;;;;;;26.53;17.07;;;;;;;4.84;70.92;100700.30;2156133;82;21257;-74
2021/03/01 08:52:42;;;;;;;23.90;17.00;;;;;;;4.80;71.09;100697.91;2156525;82;21252;-74
2021/03/01 08:55:43;;;;;;;26.13;18.17;;;;;;;4.76;70.94;100701.11;2156832;82;21146;-75
2021/03/01 08:58:44;;;;;;;29.50;19.13;;;;;;;4.69;71.26;100701.50;2156430;82;21862;-75
2021/03/01 09:01:45;;;;;;;36.37;18.47;;;;;;;4.69;71.56;100706.28;2156919;82;21117;-75
2021/03/01 09:04:46;;;;;;;27.80;19.30;;;;;;;4.72;71.27;100708.17;2155872;81;21304;-75
2021/03/01 09:07:48;;;;;;;40.47;22.47;;;;;;;4.71;71.23;100713.74;2156526;82;21222;-75
2021/03/01 09:10:49;;;;;;;36.70;23.77;;;;;;;4.73;71.27;100710.86;2156625;82;21308;-75
2021/03/01 09:13:50;;;;;;;30.60;18.67;;;;;;;4.76;71.31;100711.05;2157186;82;21162;-75
2021/03/01 09:16:51;;;;;;;38.80;20.23;;;;;;;4.77;71.22;100721.00;2156588;82;21819;-75
2021/03/01 09:19:52;;;;;;;38.97;22.07;;;;;;;4.69;71.35;100717.92;2156440;82;21583;-75
2021/03/01 09:22:53;;;;;;;62.00;34.63;;;;;;;4.66;71.45;100713.84;2156740;82;21245;-74
2021/03/01 09:25:54;;;;;;;33.87;19.73;;;;;;;4.66;71.44;100715.53;2156981;82;21171;-75
2021/03/01 09:28:55;;;;;;;36.87;22.30;;;;;;;4.71;71.62;100714.14;2157486;82;21800;-75
2021/03/01 09:31:56;;;;;;;39.63;21.90;;;;;;;4.71;71.33;100719.31;2157229;82;21226;-73
2021/03/01 09:34:59;;;;;;;44.57;28.03;;;;;;;4.72;71.39;100724.59;2156110;82;21288;-75
2021/03/01 09:38:00;;;;;;;45.83;26.90;;;;;;;4.84;70.98;100721.00;2157024;82;21201;-74
2021/03/01 09:41:01;;;;;;;25.20;18.93;;;;;;;4.84;70.70;100733.54;2156407;82;21276;-74
2021/03/01 09:44:02;;;;;;;45.80;23.73;;;;;;;4.86;70.51;100734.93;2156539;82;21792;-75
2021/03/01 09:47:03;;;;;;;24.90;17.03;;;;;;;4.84;70.53;100732.24;2157834;82;21269;-75
2021/03/01 09:50:06;;;;;;;29.37;18.63;;;;;;;4.79;70.46;100726.77;2157396;82;21241;-75
2021/03/01 09:53:07;;;;;;;24.80;18.10;;;;;;;4.83;70.53;100726.57;2156749;82;21268;-75
2021/03/01 09:56:08;;;;;;;34.07;21.70;;;;;;;4.93;70.78;100731.54;2157014;82;21858;-75
2021/03/01 09:59:09;;;;;;;35.63;22.10;;;;;;;4.90;70.21;100733.94;2157430;82;21436;-76
2021/03/01 10:02:10;;;;;;;76.23;30.03;;;;;;;4.93;70.38;100741.89;2157673;82;21250;-76
2021/03/01 10:05:11;;;;;;;59.43;31.00;;;;;;;5.03;70.42;100738.20;2158639;81;21170;-78
2021/03/01 10:08:12;;;;;;;59.70;28.90;;;;;;;5.13;70.11;100738.87;2168623;82;21654;-76
2021/03/01 10:11:13;;;;;;;47.23;23.37;;;;;;;5.17;70.18;100739.08;2167951;82;21292;-76
2021/03/01 10:14:15;;;;;;;81.07;22.00;;;;;;;5.24;69.94;100742.58;2168148;82;21130;-74
2021/03/01 10:17:18;;;;;;;39.43;23.40;;;;;;;5.23;69.57;100755.92;2167765;82;21497;-74
2021/03/01 10:20:19;;;;;;;37.37;21.73;;;;;;;5.06;69.90;100758.70;2168136;82;21264;-75
2021/03/01 10:23:20;;;;;;;52.53;27.50;;;;;;;5.06;69.90;100758.70;2167925;82;21267;-74
2021/03/01 10:26:22;;;;;;;56.20;31.07;;;;;;;4.99;70.04;100751.34;2167327;82;21197;-75
2021/03/01 10:29:23;;;;;;;57.33;28.20;;;;;;;5.04;70.18;100760.30;2167336;82;21252;-75
2021/03/01 10:32:24;;;;;;;46.17;23.77;;;;;;;4.97;70.27;100762.00;2167757;82;21237;-74
2021/03/01 10:35:25;;;;;;;43.23;25.17;;;;;;;4.92;70.48;100762.09;2167702;82;21257;-75
2021/03/01 10:38:26;;;;;;;81.37;30.00;;;;;;;4.86;70.50;100765.58;2167682;82;21138;-74
2021/03/01 10:41:27;;;;;;;38.10;25.97;;;;;;;4.86;70.82;100769.47;2168077;82;21110;-77
2021/03/01 10:44:28;;;;;;;35.60;25.27;;;;;;;4.85;70.56;100772.84;2168255;82;21142;-75
2021/03/01 10:47:29;;;;;;;44.67;26.93;;;;;;;4.81;70.79;100772.16;2168191;82;21578;-75
2021/03/01 10:50:30;;;;;;;45.17;29.63;;;;;;;4.79;71.03;100776.33;2167705;82;21682;-75
2021/03/01 10:53:31;;;;;;;47.40;28.30;;;;;;;4.79;70.98;100776.33;2167357;82;21142;-75
2021/03/01 10:56:32;;;;;;;46.77;28.57;;;;;;;4.79;70.93;100775.04;2167484;82;21312;-75
2021/03/01 10:59:34;;;;;;;44.03;29.33;;;;;;;4.80;70.78;100771.26;2167681;82;21551;-75
2021/03/01 11:02:35;;;;;;;45.67;30.90;;;;;;;4.79;70.85;100760.81;2166151;82;21146;-75
2021/03/01 11:05:36;;;;;;;45.57;29.10;;;;;;;4.86;70.78;100765.58;2167582;81;21158;-77
2021/03/01 11:08:37;;;;;;;43.63;30.37;;;;;;;4.86;70.58;100765.58;2174637;81;21265;-75
2021/03/01 11:11:38;;;;;;;46.47;31.40;;;;;;;4.85;70.73;100765.09;2174532;81;21122;-75
2021/03/01 11:14:39;;;;;;;45.47;30.20;;;;;;;4.91;70.90;100767.17;2174330;81;21130;-75
2021/03/01 11:17:40;;;;;;;53.07;30.20;;;;;;;4.99;70.82;100773.34;2174716;81;21138;-75
2021/03/01 11:20:41;;;;;;;44.97;30.90;;;;;;;5.01;70.54;100770.45;2174992;81;21617;-77
2021/03/01 11:23:42;;;;;;;45.93;29.77;;;;;;;5.02;70.45;100772.25;2175189;81;21269;-75
2021/03/01 11:26:43;;;;;;;45.80;29.47;;;;;;;4.96;70.28;100770.55;2175432;82;21451;-75
2021/03/01 11:29:45;;;;;;;35.33;26.07;;;;;;;4.97;70.46;100770.16;2175599;81;21711;-76
2021/03/01 11:32:46;;;;;;;44.43;28.80;;;;;;;4.93;70.58;100779.42;2173507;81;21264;-74
2021/03/01 11:35:48;;;;;;;39.33;27.17;;;;;;;4.89;70.65;100786.48;2174519;81;21098;-75
2021/03/01 11:38:49;;;;;;;47.97;29.10;;;;;;;4.85;70.62;100778.02;2174343;82;21295;-74
2021/03/01 11:41:50;;;;;;;41.13;26.40;;;;;;;4.90;70.57;100774.05;2174444;81;21240;-74
2021/03/01 11:44:51;;;;;;;41.83;26.90;;;;;;;4.90;70.56;100774.44;2174492;81;21182;-75
2021/03/01 11:47:52;;;;;;;38.80;26.87;;;;;;;4.97;70.52;100775.33;2174095;81;21211;-75
2021/03/01 11:50:53;;;;;;;40.20;27.17;;;;;;;4.98;70.32;100779.71;2174147;81;21776;-75
2021/03/01 11:53:54;;;;;;;39.40;27.03;;;;;;;4.99;70.34;100780.21;2175732;81;21284;-74
2021/03/01 11:56:55;;;;;;;39.47;27.67;;;;;;;5.02;70.41;100773.54;2173896;81;21852;-75
2021/03/01 11:59:56;;;;;;;41.93;28.87;;;;;;;5.08;70.39;100775.22;2175164;82;21244;-75
2021/03/01 12:02:57;;;;;;;45.03;31.90;;;;;;;5.17;70.14;100773.63;2174607;81;21252;-75
2021/03/01 12:05:59;;;;;;;39.70;27.90;;;;;;;5.22;69.84;100773.55;2174529;81;21617;-75
2021/03/01 12:09:00;;;;;;;39.50;26.83;;;;;;;5.28;69.69;100778.22;2174484;81;21129;-75
2021/03/01 12:12:01;;;;;;;40.40;28.77;;;;;;;5.27;69.77;100777.73;2175285;81;21110;-75
2021/03/01 12:15:02;;;;;;;45.00;29.83;;;;;;;5.29;69.81;100767.06;2174813;81;21150;-75
2021/03/01 12:18:03;;;;;;;40.77;28.60;;;;;;;5.34;69.56;100778.21;2174757;81;21107;-75
2021/03/01 12:21:04;;;;;;;52.40;32.80;;;;;;;5.37;69.41;100771.03;2174986;81;21233;-74
2021/03/01 12:24:05;;;;;;;42.57;28.40;;;;;;;5.33;69.34;100767.36;2174484;81;21252;-75
2021/03/01 12:27:06;;;;;;;47.00;32.43;;;;;;;5.29;69.38;100774.83;2175489;81;21150;-75
2021/03/01 12:30:07;;;;;;;45.00;29.30;;;;;;;5.28;69.39;100773.05;2174090;81;21897;-75
2021/03/01 12:33:09;;;;;;;39.10;27.73;;;;;;;5.28;69.67;100767.47;2173416;81;21597;-74
2021/03/01 12:36:10;;;;;;;35.90;25.23;;;;;;;5.36;69.64;100765.36;2174146;81;21276;-75
2021/03/01 12:39:14;;;;;;;41.57;30.20;;;;;;;5.34;69.34;100766.55;2174624;82;21264;-75
2021/03/01 12:42:15;;;;;;;50.10;31.07;;;;;;;5.36;69.50;100766.66;2174178;81;21225;-75
2021/03/01 12:45:16;;;;;;;42.37;30.90;;;;;;;5.38;69.23;100762.47;2173022;81;21974;-76
2021/03/01 12:48:17;;;;;;;41.47;29.30;;;;;;;5.40;69.29;100751.80;2174272;81;21248;-76
2021/03/01 12:51:18;;;;;;;57.23;36.37;;;;;;;5.48;69.47;100750.98;2175103;81;21098;-75
2021/03/01 12:54:19;;;;;;;67.37;39.33;;;;;;;5.57;69.27;100756.73;2174234;81;21142;-75
2021/03/01 12:57:20;;;;;;;78.23;43.23;;;;;;;5.48;69.55;100755.77;2174413;81;21276;-76
2021/03/01 13:00:21;;;;;;;64.57;38.17;;;;;;;5.45;69.62;100751.69;2174820;81;21094;-75
2021/03/01 13:03:22;;;;;;;59.60;36.80;;;;;;;5.40;69.53;100753.09;2173455;81;21269;-75
2021/03/01 13:06:23;;;;;;;54.83;32.47;;;;;;;5.37;69.82;100743.84;2167396;81;21130;-75
2021/03/01 13:09:24;;;;;;;51.43;34.70;;;;;;;5.46;69.72;100745.71;2153412;82;21154;-76
2021/03/01 13:12:25;;;;;;;59.00;36.20;;;;;;;5.40;69.36;100756.98;2154380;82;21249;-77
2021/03/01 13:15:26;;;;;;;57.53;35.10;;;;;;;5.29;69.70;100750.23;2155121;82;21606;-78
2021/03/01 13:18:28;;;;;;;55.80;33.97;;;;;;;5.29;69.80;100760.59;2155343;82;21892;-75
2021/03/01 13:21:29;;;;;;;58.20;36.27;;;;;;;5.27;69.97;100756.61;2155787;82;21221;-76
2021/03/01 13:24:30;;;;;;;51.40;34.13;;;;;;;5.27;69.96;100755.72;2155267;82;21273;-77
2021/03/01 13:27:31;;;;;;;50.00;33.37;;;;;;;5.22;70.08;100758.02;2156481;82;21816;-78
2021/03/01 13:30:32;;;;;;;53.30;35.60;;;;;;;5.19;70.16;100756.89;2156850;82;21319;-78
2021/03/01 13:33:34;;;;;;;57.07;37.27;;;;;;;5.13;70.50;100760.88;2157719;82;21098;-77
2021/03/01 13:36:35;;;;;;;51.23;36.23;;;;;;;5.11;70.41;100758.99;2157026;82;21820;-76
2021/03/01 13:39:36;;;;;;;55.30;35.87;;;;;;;5.11;70.55;100756.00;2156592;82;21257;-78
2021/03/01 13:42:38;;;;;;;50.83;33.43;;;;;;;5.07;70.62;100755.72;2157517;82;21142;-78
2021/03/01 13:45:41;;;;;;;66.67;39.27;;;;;;;5.09;70.49;100755.02;2157395;82;21308;-77
2021/03/01 13:48:42;;;;;;;48.20;33.00;;;;;;;5.11;70.29;100753.42;2157875;82;21567;-77
2021/03/01 13:51:43;;;;;;;59.43;35.57;;;;;;;5.07;70.22;100754.02;2158553;82;21164;-77
2021/03/01 13:54:44;;;;;;;60.53;39.27;;;;;;;5.09;70.25;100752.42;2158879;82;21272;-79